Time;durP1;ratioP1;P1;durP2;ratioP2;P2;SDS_P1;SDS_P2;PMS_P1;PMS_P2;Temp;Humidity;BMP_temperature;BMP_pressure;BME280_temperature;BME280_humidity;BME280_pressure;Samples;Min_cycle;Max_cycle;Signal;HPM_P1;HPM_P2
2022/08/30 00:01:10;;;;;;;9.30;7.82;;;14.80;99.90;;;;;;5044997;28;20620;-66
2022/08/30 00:03:44;;;;;;;9.65;8.00;;;14.90;99.90;;;;;;5056237;28;20073;-67
2022/08/30 00:06:11;;;;;;;11.65;8.07;;;14.90;99.90;;;;;;5044788;28;20059;-67
2022/08/30 00:08:39;;;;;;;12.70;9.13;;;15.00;99.90;;;;;;5042642;28;20036;-67
2022/08/30 00:11:08;;;;;;;11.75;8.23;;;14.90;99.90;;;;;;5045962;28;20057;-67
2022/08/30 00:13:35;;;;;;;13.35;8.55;;;14.90;99.90;;;;;;5041082;28;20322;-67
2022/08/30 00:16:01;;;;;;;11.63;7.78;;;14.90;99.90;;;;;;5044670;28;20052;-67
2022/08/30 00:18:28;;;;;;;9.95;8.00;;;14.90;99.90;;;;;;5057499;28;20406;-67
2022/08/30 00:20:54;;;;;;;10.35;8.55;;;15.00;99.90;;;;;;5042340;28;20077;-66
2022/08/30 00:23:21;;;;;;;12.38;8.85;;;14.90;99.90;;;;;;5043129;28;20036;-66
2022/08/30 00:25:47;;;;;;;11.98;7.60;;;15.00;99.90;;;;;;5043277;28;20496;-66
2022/08/30 00:28:13;;;;;;;10.38;8.02;;;15.00;99.90;;;;;;5041952;28;20033;-66
2022/08/30 00:30:40;;;;;;;10.98;8.18;;;15.00;99.90;;;;;;5058628;28;20087;-66
2022/08/30 00:33:06;;;;;;;12.63;8.05;;;15.00;99.90;;;;;;5043516;28;20044;-66
2022/08/30 00:35:32;;;;;;;11.70;8.48;;;14.90;99.90;;;;;;5041897;28;20033;-66
2022/08/30 00:37:57;;;;;;;13.70;8.55;;;14.80;99.90;;;;;;5041253;28;20033;-66
2022/08/30 00:40:24;;;;;;;11.63;8.88;;;14.70;99.90;;;;;;5057523;28;20041;-66
2022/08/30 00:42:49;;;;;;;12.88;8.93;;;14.80;99.90;;;;;;5040742;28;20033;-66
2022/08/30 00:45:23;;;;;;;11.60;8.38;;;14.80;99.90;;;;;;5038018;28;20037;-66
2022/08/30 00:47:49;;;;;;;12.30;9.13;;;14.70;99.90;;;;;;5041919;28;20048;-66
2022/08/30 00:50:18;;;;;;;10.65;8.18;;;14.60;99.90;;;;;;5045276;28;20563;-66
2022/08/30 00:52:47;;;;;;;11.27;8.57;;;14.60;99.90;;;;;;5041487;28;20056;-66
2022/08/30 00:55:15;;;;;;;12.20;8.07;;;14.50;99.90;;;;;;5045755;28;20071;-66
2022/08/30 00:57:44;;;;;;;12.60;8.95;;;14.50;99.90;;;;;;5047358;28;20456;-66
2022/08/30 01:00:12;;;;;;;12.07;8.65;;;14.60;99.90;;;;;;5044598;28;20045;-66
2022/08/30 01:02:38;;;;;;;11.13;8.57;;;14.50;99.90;;;;;;5040804;28;20075;-66
2022/08/30 01:05:09;;;;;;;13.68;8.35;;;14.40;99.90;;;;;;5041476;28;20090;-66
2022/08/30 01:07:36;;;;;;;11.80;8.65;;;14.40;99.90;;;;;;5046118;28;20049;-66
2022/08/30 01:10:04;;;;;;;13.32;9.20;;;14.50;99.90;;;;;;5047810;28;20044;-66
2022/08/30 01:12:29;;;;;;;10.30;8.52;;;14.50;99.90;;;;;;5047735;28;20375;-66
2022/08/30 01:14:57;;;;;;;10.90;8.07;;;14.40;99.90;;;;;;5048617;28;20044;-66
2022/08/30 01:17:24;;;;;;;13.88;8.43;;;14.40;99.90;;;;;;5046819;28;20399;-66
2022/08/30 01:19:55;;;;;;;11.02;8.20;;;14.50;99.90;;;;;;5047175;28;20041;-66
2022/08/30 01:22:27;;;;;;;8.63;7.43;;;14.40;99.90;;;;;;5060727;28;20041;-67
2022/08/30 01:24:56;;;;;;;14.90;8.27;;;14.50;99.90;;;;;;5047878;28;20037;-66
2022/08/30 01:27:22;;;;;;;10.43;8.18;;;14.40;99.90;;;;;;5046784;28;20037;-66
2022/08/30 01:29:49;;;;;;;11.52;7.88;;;14.50;99.90;;;;;;5047945;28;20040;-66
2022/08/30 01:32:23;;;;;;;13.95;7.55;;;14.50;99.90;;;;;;5048661;28;20087;-66
2022/08/30 01:34:50;;;;;;;10.95;7.70;;;14.40;99.90;;;;;;5043782;28;20051;-66
2022/08/30 01:37:20;;;;;;;10.95;7.57;;;14.50;99.90;;;;;;5043033;28;20111;-66
2022/08/30 01:39:47;;;;;;;12.32;7.70;;;14.40;99.90;;;;;;5046850;28;20041;-67
2022/08/30 01:42:16;;;;;;;10.93;7.07;;;14.40;99.90;;;;;;5046406;28;20116;-66
2022/08/30 01:44:42;;;;;;;9.95;6.90;;;14.40;99.90;;;;;;5049003;28;20519;-66
2022/08/30 01:47:08;;;;;;;10.30;6.18;;;14.50;99.90;;;;;;5045897;28;20049;-67
2022/08/30 01:49:34;;;;;;;10.63;6.28;;;14.40;99.90;;;;;;5044166;28;20053;-66
2022/08/30 01:51:59;;;;;;;12.63;6.60;;;14.50;99.90;;;;;;5046978;28;20093;-66
2022/08/30 01:54:25;;;;;;;7.82;6.10;;;14.50;99.90;;;;;;5045342;28;20413;-66
2022/08/30 01:56:50;;;;;;;9.43;6.47;;;14.40;99.90;;;;;;5048405;28;20041;-66
2022/08/30 01:59:16;;;;;;;11.07;6.90;;;14.40;99.90;;;;;;5046621;28;20045;-66
2022/08/30 02:01:42;;;;;;;12.75;6.53;;;14.40;99.90;;;;;;5047046;28;20045;-66
2022/08/30 02:04:10;;;;;;;7.88;6.35;;;14.40;99.90;;;;;;5042322;28;20040;-66
2022/08/30 02:06:37;;;;;;;9.63;6.70;;;14.40;99.90;;;;;;5049476;28;20561;-66
2022/08/30 02:09:03;;;;;;;11.05;6.43;;;14.40;99.90;;;;;;5046620;28;20041;-66
2022/08/30 02:11:28;;;;;;;9.95;6.28;;;14.40;99.90;;;;;;5047135;28;20055;-66
2022/08/30 02:13:54;;;;;;;10.85;6.68;;;14.30;99.90;;;;;;5046663;28;20037;-66
2022/08/30 02:16:22;;;;;;;8.75;6.25;;;14.30;99.90;;;;;;5048258;28;20068;-66
2022/08/30 02:18:49;;;;;;;10.85;7.03;;;14.40;99.90;;;;;;5046355;28;20060;-66
2022/08/30 02:21:15;;;;;;;9.20;7.00;;;14.40;99.90;;;;;;5044969;28;20043;-67
2022/08/30 02:23:41;;;;;;;11.38;6.85;;;14.40;99.90;;;;;;5042942;28;20111;-66
2022/08/30 02:26:07;;;;;;;9.45;6.40;;;14.40;99.90;;;;;;5049696;28;20557;-66
2022/08/30 02:28:33;;;;;;;8.98;6.63;;;14.40;99.90;;;;;;5041810;28;20041;-66
2022/08/30 02:30:59;;;;;;;8.02;6.40;;;14.40;99.90;;;;;;5046342;28;20779;-66
2022/08/30 02:33:25;;;;;;;9.88;6.50;;;14.30;99.90;;;;;;5045399;28;20033;-67
2022/08/30 02:35:51;;;;;;;10.90;6.47;;;14.30;99.90;;;;;;5046221;28;20044;-66
2022/08/30 02:38:16;;;;;;;7.60;6.03;;;14.40;99.90;;;;;;5063892;28;20099;-66
2022/08/30 02:40:43;;;;;;;9.63;6.25;;;14.30;99.90;;;;;;5042722;28;20045;-66
2022/08/30 02:43:10;;;;;;;13.75;6.43;;;14.40;99.90;;;;;;5046866;28;20143;-66
2022/08/30 02:45:35;;;;;;;7.43;6.18;;;14.30;99.90;;;;;;5044448;28;20495;-66
2022/08/30 02:48:01;;;;;;;8.98;6.32;;;14.20;99.90;;;;;;5040898;28;20116;-66
2022/08/30 02:50:27;;;;;;;8.77;6.82;;;14.40;99.90;;;;;;5046291;28;20033;-66
2022/08/30 02:52:53;;;;;;;15.27;6.65;;;14.40;99.90;;;;;;5047054;28;20698;-66
2022/08/30 02:55:18;;;;;;;9.90;6.60;;;14.40;99.90;;;;;;5040762;28;20116;-66
2022/08/30 02:57:45;;;;;;;8.80;6.68;;;14.30;99.90;;;;;;5044636;28;20086;-66
2022/08/30 03:00:14;;;;;;;12.18;6.90;;;14.30;99.90;;;;;;5045304;28;20120;-66
2022/08/30 03:02:40;;;;;;;9.55;7.10;;;14.30;99.90;;;;;;5046175;28;20037;-67
2022/08/30 03:05:14;;;;;;;12.05;6.75;;;14.30;99.90;;;;;;5047477;28;20044;-66
2022/08/30 03:07:40;;;;;;;10.25;6.60;;;14.30;99.90;;;;;;5047434;28;20040;-67
2022/08/30 03:10:06;;;;;;;10.45;6.30;;;14.30;99.90;;;;;;5041315;28;20036;-67
2022/08/30 03:12:32;;;;;;;7.45;6.10;;;14.10;99.90;;;;;;5045764;28;20037;-66
2022/08/30 03:14:58;;;;;;;10.05;6.82;;;14.20;99.90;;;;;;5046997;28;20506;-66
2022/08/30 03:17:24;;;;;;;10.20;6.18;;;14.20;99.90;;;;;;5043436;28;20040;-66
2022/08/30 03:19:50;;;;;;;11.60;7.00;;;14.20;99.90;;;;;;5044195;28;20120;-66
2022/08/30 03:22:16;;;;;;;10.13;6.45;;;14.20;99.90;;;;;;5044541;28;20132;-66
2022/08/30 03:24:42;;;;;;;10.48;7.00;;;14.20;99.90;;;;;;5047482;28;20029;-66
2022/08/30 03:27:08;;;;;;;8.88;6.55;;;14.10;99.90;;;;;;5043164;28;20147;-66
2022/08/30 03:29:34;;;;;;;8.90;6.63;;;14.00;99.90;;;;;;5042406;28;20057;-66
2022/08/30 03:32:00;;;;;;;11.13;7.05;;;14.00;99.90;;;;;;5046030;28;20044;-66
2022/08/30 03:34:26;;;;;;;9.73;7.20;;;14.00;99.90;;;;;;5044948;28;20403;-66
2022/08/30 03:36:54;;;;;;;8.98;7.03;;;13.90;99.90;;;;;;5044753;28;20037;-66
2022/08/30 03:39:21;;;;;;;8.45;6.45;;;13.90;99.90;;;;;;5046174;28;20037;-66
2022/08/30 03:41:47;;;;;;;10.60;7.00;;;13.80;99.90;;;;;;5044075;28;20041;-66
2022/08/30 03:44:12;;;;;;;10.95;6.85;;;13.90;99.90;;;;;;5046170;28;20041;-66
2022/08/30 03:46:38;;;;;;;13.75;8.18;;;13.80;99.90;;;;;;5046490;28;20434;-66
2022/08/30 03:49:04;;;;;;;8.30;7.10;;;13.70;99.90;;;;;;5045954;28;20490;-66
2022/08/30 03:51:30;;;;;;;9.35;6.82;;;13.80;99.90;;;;;;5045411;28;20040;-66
2022/08/30 03:53:56;;;;;;;11.48;7.22;;;13.80;99.90;;;;;;5044368;28;20333;-66
2022/08/30 03:56:22;;;;;;;9.50;7.72;;;13.80;99.90;;;;;;5046860;28;20407;-66
2022/08/30 03:58:47;;;;;;;10.45;7.75;;;13.80;99.90;;;;;;5058245;28;20504;-66
2022/08/30 04:01:13;;;;;;;12.25;7.65;;;13.80;99.90;;;;;;5056822;28;20041;-66
2022/08/30 04:03:38;;;;;;;13.25;7.88;;;13.70;99.90;;;;;;5045312;28;20053;-66
2022/08/30 04:06:04;;;;;;;10.13;7.78;;;13.70;99.90;;;;;;5044625;28;20041;-67
2022/08/30 04:08:30;;;;;;;10.00;7.93;;;13.70;99.90;;;;;;5058509;28;20041;-66
2022/08/30 04:10:56;;;;;;;11.65;7.78;;;13.60;99.90;;;;;;5042850;28;20041;-66
2022/08/30 04:13:23;;;;;;;12.18;7.90;;;13.60;99.90;;;;;;5041342;28;20044;-66
2022/08/30 04:15:49;;;;;;;11.82;8.75;;;13.70;99.90;;;;;;5040355;28;20029;-66
2022/08/30 04:18:15;;;;;;;14.40;8.45;;;13.70;99.90;;;;;;5058032;28;20155;-66
2022/08/30 04:20:41;;;;;;;13.73;8.57;;;13.70;99.90;;;;;;5046709;28;20124;-66
2022/08/30 04:23:06;;;;;;;11.00;7.90;;;13.60;99.90;;;;;;5042719;28;20059;-66
2022/08/30 04:25:37;;;;;;;13.00;8.10;;;13.60;99.90;;;;;;5045653;28;20094;-66
2022/08/30 04:28:03;;;;;;;9.88;8.55;;;13.60;99.90;;;;;;5043186;28;20111;-66
2022/08/30 04:30:29;;;;;;;12.00;7.35;;;13.60;99.90;;;;;;5043618;28;20036;-66
2022/08/30 04:32:55;;;;;;;11.18;8.00;;;13.50;99.90;;;;;;5045986;28;20079;-66
2022/08/30 04:35:21;;;;;;;12.65;8.00;;;13.60;99.90;;;;;;5047186;28;20438;-66
2022/08/30 04:37:47;;;;;;;13.30;8.20;;;13.60;99.90;;;;;;5046910;28;20553;-66
2022/08/30 04:40:13;;;;;;;11.73;7.50;;;13.50;99.90;;;;;;5048819;28;20037;-66
2022/08/30 04:42:39;;;;;;;10.45;7.30;;;13.30;99.90;;;;;;5045419;28;20040;-66
2022/08/30 04:45:08;;;;;;;9.98;7.65;;;13.40;99.90;;;;;;5048256;28;20407;-66
2022/08/30 04:47:35;;;;;;;13.15;8.05;;;13.40;99.90;;;;;;5046857;28;20083;-66
2022/08/30 04:50:02;;;;;;;13.10;8.00;;;13.30;99.90;;;;;;5051736;28;20083;-66
2022/08/30 04:52:28;;;;;;;12.82;8.18;;;13.50;99.90;;;;;;5047662;28;20102;-66
2022/08/30 04:54:57;;;;;;;13.32;7.50;;;13.50;99.90;;;;;;5058009;28;20037;-66
2022/08/30 04:57:24;;;;;;;12.48;8.38;;;13.40;99.90;;;;;;5052173;28;20029;-66
2022/08/30 04:59:50;;;;;;;9.40;7.40;;;13.30;99.90;;;;;;5052730;28;20396;-66
2022/08/30 05:02:17;;;;;;;10.73;7.80;;;13.40;99.90;;;;;;5049924;28;20037;-66
2022/08/30 05:05:38;;;;;;;10.38;7.38;;;13.30;99.90;;;;;;5045978;28;20128;-66
2022/08/30 05:07:30;;;;;;;11.60;7.57;;;13.30;99.90;;;;;;5044285;28;20380;-66
2022/08/30 05:09:56;;;;;;;11.50;7.55;;;13.20;99.90;;;;;;5047194;28;20515;-66
2022/08/30 05:12:22;;;;;;;9.35;7.60;;;13.20;99.90;;;;;;5050830;28;20083;-66
2022/08/30 05:14:48;;;;;;;11.73;8.10;;;13.30;99.90;;;;;;5052253;28;20057;-66
2022/08/30 05:17:14;;;;;;;11.90;7.63;;;13.30;99.90;;;;;;5052092;28;20087;-66
2022/08/30 05:19:40;;;;;;;9.38;7.47;;;13.30;99.90;;;;;;5047776;28;22209;-66
2022/08/30 05:22:05;;;;;;;10.05;7.55;;;13.30;99.90;;;;;;5047561;28;20063;-66
2022/08/30 05:24:31;;;;;;;10.95;8.02;;;13.20;99.90;;;;;;5053181;28;20107;-66
2022/08/30 05:26:57;;;;;;;11.18;7.60;;;13.30;99.90;;;;;;5053410;28;20048;-66
2022/08/30 05:29:23;;;;;;;8.57;7.03;;;13.30;99.90;;;;;;5048828;28;20021;-66
2022/08/30 05:31:49;;;;;;;10.35;7.68;;;13.30;99.90;;;;;;5050145;28;20041;-66
2022/08/30 05:34:15;;;;;;;10.13;7.68;;;13.30;99.90;;;;;;5046858;28;20045;-66
2022/08/30 05:36:42;;;;;;;11.60;7.13;;;13.20;99.90;;;;;;5045999;28;20375;-66
2022/08/30 05:39:08;;;;;;;10.45;7.60;;;13.20;99.90;;;;;;5045068;28;20029;-66
2022/08/30 05:41:36;;;;;;;12.10;7.95;;;13.30;99.90;;;;;;5049833;28;20095;-66
2022/08/30 05:44:04;;;;;;;11.90;7.72;;;13.30;99.90;;;;;;5044754;28;20131;-66
2022/08/30 05:46:32;;;;;;;11.27;8.48;;;13.20;99.90;;;;;;5050693;28;20539;-66
2022/08/30 05:49:00;;;;;;;14.85;9.02;;;13.30;99.90;;;;;;5049304;28;20049;-66
2022/08/30 05:51:27;;;;;;;11.70;8.82;;;13.40;99.90;;;;;;5044495;28;20060;-65
2022/08/30 05:53:54;;;;;;;14.23;9.10;;;13.50;99.90;;;;;;5047562;28;20559;-66
2022/08/30 05:56:30;;;;;;;12.95;9.38;;;13.50;99.90;;;;;;5047590;28;20092;-66
2022/08/30 05:58:56;;;;;;;13.10;9.80;;;13.70;99.90;;;;;;5046746;28;20056;-66
2022/08/30 06:01:25;;;;;;;11.43;8.70;;;13.80;99.90;;;;;;5045865;28;20041;-65
2022/08/30 06:03:53;;;;;;;11.75;8.77;;;13.80;99.90;;;;;;5047512;28;20045;-65
2022/08/30 06:06:19;;;;;;;13.05;9.45;;;13.80;99.90;;;;;;5047273;28;20403;-66
2022/08/30 06:08:46;;;;;;;12.57;8.98;;;14.00;99.90;;;;;;5041039;28;20037;-65
2022/08/30 06:11:13;;;;;;;10.77;8.82;;;14.00;99.90;;;;;;5041693;28;20095;-66
2022/08/30 06:13:40;;;;;;;12.35;8.95;;;14.20;99.90;;;;;;5049910;28;20052;-66
2022/08/30 06:16:05;;;;;;;13.27;8.98;;;14.20;99.90;;;;;;5048591;28;20044;-66
2022/08/30 06:18:31;;;;;;;11.35;8.48;;;14.30;99.90;;;;;;5044525;28;20048;-66
2022/08/30 06:20:57;;;;;;;10.52;8.32;;;14.50;99.90;;;;;;5050567;28;20549;-66
2022/08/30 06:23:23;;;;;;;11.15;8.48;;;14.50;99.90;;;;;;5055148;28;20091;-66
2022/08/30 06:25:49;;;;;;;11.02;8.23;;;14.60;99.90;;;;;;5052951;28;20098;-66
2022/08/30 06:28:15;;;;;;;11.85;8.55;;;14.70;99.90;;;;;;5034105;28;20041;-66
2022/08/30 06:30:42;;;;;;;14.38;9.20;;;14.80;99.90;;;;;;5051860;28;20036;-66
2022/08/30 06:33:09;;;;;;;9.68;7.90;;;14.80;99.90;;;;;;5049607;28;20047;-66
2022/08/30 06:35:35;;;;;;;11.63;7.78;;;15.00;99.90;;;;;;5052658;28;20041;-66
2022/08/30 06:38:01;;;;;;;10.43;7.40;;;15.20;99.90;;;;;;5041476;28;20060;-66
2022/08/30 06:40:26;;;;;;;12.27;7.35;;;15.10;99.90;;;;;;5049416;28;20037;-66
2022/08/30 06:42:53;;;;;;;9.93;7.10;;;15.30;99.90;;;;;;5049595;28;20047;-66
2022/08/30 06:45:19;;;;;;;10.95;7.03;;;15.40;99.90;;;;;;5050531;28;20049;-66
2022/08/30 06:47:46;;;;;;;9.50;7.28;;;15.40;99.90;;;;;;5048958;28;20045;-66
2022/08/30 06:50:13;;;;;;;9.63;6.90;;;15.60;99.90;;;;;;5049879;28;20361;-66
2022/08/30 06:52:43;;;;;;;11.73;6.93;;;15.70;99.90;;;;;;5047641;28;20036;-65
2022/08/30 06:55:11;;;;;;;8.90;6.13;;;15.80;99.90;;;;;;5045876;28;20510;-66
2022/08/30 06:57:36;;;;;;;7.90;6.30;;;15.80;99.90;;;;;;5046550;28;20484;-66
2022/08/30 07:00:04;;;;;;;9.15;6.18;;;15.90;99.90;;;;;;5046416;28;21276;-66
2022/08/30 07:02:30;;;;;;;7.95;6.00;;;16.10;99.90;;;;;;5057695;28;20037;-66
2022/08/30 07:04:55;;;;;;;7.00;5.72;;;16.10;99.90;;;;;;5047103;28;20063;-66
2022/08/30 07:07:21;;;;;;;7.05;5.78;;;16.20;99.90;;;;;;5046693;28;20129;-66
2022/08/30 07:09:47;;;;;;;8.00;5.82;;;16.40;99.90;;;;;;5042632;28;20060;-66
2022/08/30 07:12:14;;;;;;;8.95;5.57;;;16.50;99.90;;;;;;5045561;28;20492;-66
2022/08/30 07:14:41;;;;;;;7.38;5.20;;;16.70;99.90;;;;;;5044612;28;20552;-66
2022/08/30 07:19:56;;;;;;;8.50;4.28;;;16.90;99.90;;;;;;5019680;28;20685;-67
2022/08/30 07:22:21;;;;;;;4.35;3.28;;;16.90;99.90;;;;;;5042786;28;20127;-66
2022/08/30 07:24:47;;;;;;;5.20;3.33;;;17.00;99.90;;;;;;5045601;28;20507;-66
2022/08/30 07:27:13;;;;;;;4.28;3.10;;;17.10;99.90;;;;;;5042695;28;20037;-66
2022/08/30 07:29:39;;;;;;;3.90;3.03;;;17.10;99.90;;;;;;5043972;28;20044;-67
2022/08/30 07:32:06;;;;;;;4.68;2.67;;;17.30;99.90;;;;;;5042624;28;20056;-67
2022/08/30 07:34:32;;;;;;;4.07;2.67;;;17.30;99.90;;;;;;5046146;28;20060;-67
2022/08/30 07:36:57;;;;;;;5.22;2.40;;;17.30;99.90;;;;;;5043385;28;20098;-67
2022/08/30 07:39:23;;;;;;;7.53;2.58;;;17.40;99.90;;;;;;5045135;28;20037;-68
2022/08/30 07:41:49;;;;;;;3.25;2.42;;;17.30;99.90;;;;;;5064832;28;20134;-68
2022/08/30 07:44:16;;;;;;;5.40;2.40;;;17.40;99.90;;;;;;5044827;28;20033;-67
2022/08/30 07:46:41;;;;;;;4.00;2.10;;;17.40;99.90;;;;;;5049087;28;20503;-67
2022/08/30 07:49:08;;;;;;;4.60;2.38;;;17.40;99.90;;;;;;5043461;28;20178;-68
2022/08/30 07:51:34;;;;;;;4.07;2.05;;;17.50;99.90;;;;;;5037480;28;20467;-67
2022/08/30 07:54:00;;;;;;;2.60;2.00;;;17.50;99.90;;;;;;5047807;28;20131;-67
2022/08/30 07:56:26;;;;;;;2.95;1.70;;;17.60;99.90;;;;;;5049566;28;20135;-67
2022/08/30 07:58:52;;;;;;;3.30;1.92;;;17.60;99.90;;;;;;5044961;28;20040;-67
2022/08/30 08:01:19;;;;;;;3.22;2.15;;;17.70;99.90;;;;;;5046897;28;20097;-67
2022/08/30 08:03:46;;;;;;;4.57;1.92;;;17.80;99.90;;;;;;5049585;28;20094;-67
2022/08/30 08:06:14;;;;;;;2.70;2.10;;;17.80;99.90;;;;;;5050257;28;20045;-67
2022/08/30 08:08:40;;;;;;;5.20;2.15;;;17.90;99.90;;;;;;5048587;28;20514;-67
2022/08/30 08:11:16;;;;;;;6.28;1.90;;;18.00;99.90;;;;;;5043592;28;20040;-67
2022/08/30 08:13:44;;;;;;;2.45;1.52;;;18.10;99.90;;;;;;5041306;28;20392;-67
2022/08/30 08:16:10;;;;;;;5.25;1.80;;;18.20;99.90;;;;;;5042712;28;20444;-67
2022/08/30 08:18:35;;;;;;;2.63;1.65;;;18.30;99.90;;;;;;5046568;28;20049;-67
2022/08/30 08:21:01;;;;;;;3.42;1.70;;;18.30;99.90;;;;;;5050076;28;20029;-68
2022/08/30 08:23:28;;;;;;;2.35;1.60;;;18.40;99.90;;;;;;5043496;28;20455;-68
2022/08/30 08:25:54;;;;;;;2.60;1.58;;;18.40;99.90;;;;;;5042231;28;20503;-67
2022/08/30 08:28:20;;;;;;;4.28;1.80;;;18.50;99.90;;;;;;5047801;28;20029;-68
2022/08/30 08:30:47;;;;;;;3.95;1.73;;;18.60;99.90;;;;;;5042992;28;20044;-68
2022/08/30 08:33:13;;;;;;;4.45;2.10;;;18.70;99.90;;;;;;5043345;28;20391;-69
2022/08/30 08:35:39;;;;;;;3.45;2.03;;;18.70;99.90;;;;;;5046680;28;20034;-67
2022/08/30 08:38:05;;;;;;;4.82;2.08;;;18.70;99.90;;;;;;5048428;28;20106;-67
2022/08/30 08:40:42;;;;;;;3.88;2.03;;;18.80;99.90;;;;;;5048575;28;20479;-68
2022/08/30 08:43:13;;;;;;;6.00;2.13;;;18.80;99.90;;;;;;5028275;28;20049;-68
2022/08/30 08:46:07;;;;;;;3.97;1.70;;;18.90;99.90;;;;;;5048407;28;20091;-68
2022/08/30 08:48:37;;;;;;;4.90;1.92;;;19.10;99.90;;;;;;5039899;28;20033;-67
2022/08/30 08:54:00;;;;;;;3.22;1.55;;;19.20;99.90;;;;;;5043196;28;20191;-68
2022/08/30 08:56:26;;;;;;;3.22;1.50;;;19.30;99.90;;;;;;5044244;28;20037;-67
2022/08/30 08:58:54;;;;;;;3.08;1.80;;;19.40;99.90;;;;;;5042379;28;20052;-68
2022/08/30 09:01:28;;;;;;;2.05;1.75;;;19.40;99.90;;;;;;5043099;28;20080;-68
2022/08/30 09:04:01;;;;;;;2.80;1.60;;;19.50;99.90;;;;;;5043585;28;20041;-68
2022/08/30 09:06:51;;;;;;;2.55;1.48;;;19.50;99.90;;;;;;5043756;28;20333;-70
2022/08/30 09:09:22;;;;;;;3.15;1.58;;;19.50;99.90;;;;;;5048463;28;20087;-68
2022/08/30 09:11:47;;;;;;;2.42;1.60;;;19.50;99.90;;;;;;5050760;28;20078;-68
2022/08/30 09:14:28;;;;;;;4.38;1.60;;;19.50;99.90;;;;;;5046454;28;20479;-68
2022/08/30 09:17:11;;;;;;;2.78;1.48;;;19.50;99.90;;;;;;5046060;28;20487;-68
2022/08/30 09:19:50;;;;;;;2.50;1.50;;;19.60;99.90;;;;;;5048313;28;20045;-68
2022/08/30 09:22:36;;;;;;;2.20;1.40;;;19.70;99.90;;;;;;5050080;28;20112;-67
2022/08/30 09:25:07;;;;;;;3.03;1.52;;;19.80;99.90;;;;;;5047281;28;20072;-68
2022/08/30 09:27:47;;;;;;;5.07;1.67;;;19.90;99.90;;;;;;5052026;28;20044;-67
2022/08/30 09:30:18;;;;;;;2.92;1.65;;;19.80;99.90;;;;;;5046425;28;20029;-68
2022/08/30 09:32:57;;;;;;;4.85;1.40;;;19.90;99.90;;;;;;5043528;28;20087;-67
2022/08/30 09:35:33;;;;;;;3.55;1.60;;;20.00;99.90;;;;;;5051336;28;20041;-67
2022/08/30 09:38:06;;;;;;;4.53;1.52;;;20.10;99.90;;;;;;5049702;28;20326;-68
2022/08/30 09:40:41;;;;;;;3.53;1.73;;;20.10;99.90;;;;;;5049616;28;20052;-67
2022/08/30 09:43:16;;;;;;;1.98;1.42;;;20.10;99.90;;;;;;5046596;28;20056;-67
2022/08/30 09:45:46;;;;;;;3.70;1.42;;;20.20;99.90;;;;;;5045872;28;20049;-68
2022/08/30 09:48:25;;;;;;;2.10;1.40;;;20.20;99.90;;;;;;5045240;28;20540;-67
2022/08/30 09:51:14;;;;;;;1.73;1.25;;;20.30;99.90;;;;;;5048557;28;20079;-67
2022/08/30 09:54:10;;;;;;;2.53;1.60;;;20.30;99.90;;;;;;5041254;28;20238;-68
2022/08/30 09:56:45;;;;;;;5.55;1.58;;;20.40;99.90;;;;;;5048650;28;20040;-68
2022/08/30 09:59:44;;;;;;;2.80;1.33;;;20.50;99.90;;;;;;5048021;28;20076;-67
2022/08/30 10:02:36;;;;;;;3.10;1.80;;;20.60;99.90;;;;;;5046253;28;20055;-69
2022/08/30 10:05:21;;;;;;;4.50;1.70;;;20.60;99.90;;;;;;5042066;28;20120;-67
2022/08/30 10:07:57;;;;;;;2.10;1.30;;;20.70;99.90;;;;;;5052398;28;20149;-67
2022/08/30 10:10:57;;;;;;;3.70;1.50;;;20.70;99.90;;;;;;5052285;28;20072;-68
2022/08/30 10:13:30;;;;;;;2.85;1.45;;;20.80;99.90;;;;;;5051919;28;20041;-68
2022/08/30 10:16:19;;;;;;;2.25;1.30;;;20.80;99.90;;;;;;5051144;28;20051;-67
2022/08/30 10:19:04;;;;;;;3.15;1.33;;;20.80;99.90;;;;;;5052473;28;20541;-68
2022/08/30 10:21:48;;;;;;;3.42;1.40;;;20.90;99.90;;;;;;5031913;28;20160;-69
2022/08/30 10:24:18;;;;;;;2.83;1.48;;;21.00;99.90;;;;;;5046884;28;20033;-68
2022/08/30 10:26:50;;;;;;;3.47;1.25;;;21.00;99.90;;;;;;5066645;28;20068;-68
2022/08/30 10:29:50;;;;;;;2.55;1.42;;;21.10;99.90;;;;;;5051764;28;20480;-68
2022/08/30 10:32:54;;;;;;;2.25;1.35;;;21.10;99.90;;;;;;5050095;28;20041;-68
2022/08/30 10:35:24;;;;;;;3.15;1.35;;;21.20;99.90;;;;;;5051022;28;20069;-68
2022/08/30 10:37:58;;;;;;;3.35;1.75;;;21.20;99.90;;;;;;5048887;28;20040;-68
2022/08/30 10:43:40;;;;;;;4.50;1.55;;;21.30;99.90;;;;;;5067003;28;20096;-67
2022/08/30 10:46:15;;;;;;;2.33;1.20;;;21.40;99.90;;;;;;5050162;28;20439;-68
2022/08/30 10:48:43;;;;;;;3.58;1.30;;;21.40;99.90;;;;;;5051100;28;20037;-67
2022/08/30 10:51:15;;;;;;;3.17;1.40;;;21.40;99.90;;;;;;5049791;28;20075;-67
2022/08/30 10:53:50;;;;;;;;;;;21.50;99.90;;;;;;5052404;28;20118;-68
2022/08/30 10:56:20;;;;;;;3.03;1.20;;;21.50;99.90;;;;;;5063525;28;19925;-68
2022/08/30 10:58:47;;;;;;;2.38;1.40;;;21.50;99.90;;;;;;5050607;28;20507;-69
2022/08/30 11:01:36;;;;;;;3.50;1.45;;;21.50;99.90;;;;;;5048574;28;20098;-68
2022/08/30 11:04:29;;;;;;;2.13;1.40;;;21.60;99.90;;;;;;5049397;28;20083;-68
2022/08/30 11:07:30;;;;;;;2.97;1.20;;;21.50;99.90;;;;;;5051099;28;20484;-67
2022/08/30 11:10:20;;;;;;;3.97;1.20;;;21.60;99.90;;;;;;5064453;28;20496;-68
2022/08/30 11:13:02;;;;;;;1.83;1.10;;;21.60;99.90;;;;;;5049526;28;20033;-67
2022/08/30 11:15:35;;;;;;;4.50;1.25;;;21.60;99.90;;;;;;5035852;28;20033;-67
2022/08/30 11:18:03;;;;;;;1.58;1.20;;;21.60;99.90;;;;;;5051235;28;20055;-67
2022/08/30 11:20:45;;;;;;;5.75;1.48;;;21.60;99.90;;;;;;5051145;28;20114;-68
2022/08/30 11:23:25;;;;;;;3.67;1.35;;;21.60;99.90;;;;;;5050550;28;20037;-68
2022/08/30 11:25:53;;;;;;;3.67;1.40;;;21.70;99.90;;;;;;5049488;28;20045;-68
2022/08/30 11:28:37;;;;;;;3.45;1.30;;;21.70;99.90;;;;;;5044060;28;20037;-68
2022/08/30 11:31:32;;;;;;;3.80;1.20;;;21.80;99.90;;;;;;5048140;28;20043;-67
2022/08/30 11:33:59;;;;;;;2.83;1.05;;;21.80;99.90;;;;;;5049555;28;20135;-68
2022/08/30 11:36:28;;;;;;;1.75;1.20;;;21.80;99.90;;;;;;5049786;28;20037;-68
2022/08/30 11:38:53;;;;;;;3.40;1.20;;;21.80;99.90;;;;;;5048938;28;20049;-68
2022/08/30 11:41:30;;;;;;;2.50;1.20;;;21.90;99.90;;;;;;5049145;28;20056;-68
2022/08/30 11:44:25;;;;;;;2.67;1.25;;;22.00;99.90;;;;;;5049888;28;20048;-67
2022/08/30 11:46:54;;;;;;;2.13;1.40;;;22.00;99.90;;;;;;5049675;28;20041;-67
2022/08/30 11:49:34;;;;;;;3.80;1.20;;;22.00;99.90;;;;;;5049416;28;20134;-68
2022/08/30 11:52:08;;;;;;;6.32;1.55;;;22.10;99.90;;;;;;5048856;28;20064;-68
2022/08/30 11:54:55;;;;;;;3.10;1.23;;;22.10;99.90;;;;;;5049418;28;20403;-68
2022/08/30 11:57:39;;;;;;;4.63;1.50;;;22.10;99.90;;;;;;5050316;28;20056;-68
2022/08/30 12:00:25;;;;;;;4.47;1.30;;;22.10;99.90;;;;;;5046567;28;20430;-67
2022/08/30 12:03:23;;;;;;;1.92;1.30;;;22.10;99.90;;;;;;5045436;28;20052;-67
2022/08/30 12:05:59;;;;;;;2.33;1.20;;;22.10;99.90;;;;;;5042940;28;20072;-68
2022/08/30 12:08:33;;;;;;;4.53;1.40;;;22.10;99.90;;;;;;5042963;28;20036;-67
2022/08/30 12:11:11;;;;;;;3.42;1.08;;;22.10;99.90;;;;;;5044370;28;20040;-68
2022/08/30 12:13:36;;;;;;;2.08;1.25;;;22.10;99.90;;;;;;5049056;28;20044;-68
2022/08/30 12:16:13;;;;;;;3.78;1.20;;;22.10;99.90;;;;;;5040858;28;20061;-68
2022/08/30 12:18:59;;;;;;;3.45;1.23;;;22.10;99.90;;;;;;5048891;28;20056;-68
2022/08/30 12:21:31;;;;;;;1.65;1.20;;;22.10;99.90;;;;;;5049936;28;20037;-68
2022/08/30 12:24:00;;;;;;;;;;;22.20;99.90;;;;;;5050556;28;20033;-68
2022/08/30 12:26:25;;;;;;;4.43;1.33;;;22.20;99.90;;;;;;5049290;28;19920;-68
2022/08/30 12:29:11;;;;;;;3.83;1.42;;;22.20;99.90;;;;;;5050415;28;20047;-68
2022/08/30 12:31:47;;;;;;;1.73;1.02;;;22.20;99.90;;;;;;5036128;28;20049;-67
2022/08/30 12:34:26;;;;;;;2.45;1.20;;;22.20;99.90;;;;;;5042028;28;20048;-69
2022/08/30 12:37:02;;;;;;;3.28;1.25;;;22.20;99.90;;;;;;5046872;28;20075;-68
2022/08/30 12:39:37;;;;;;;2.13;1.45;;;22.20;99.90;;;;;;5061547;28;20392;-68
2022/08/30 12:42:12;;;;;;;2.80;1.38;;;22.20;98.90;;;;;;5046487;28;20041;-67
2022/08/30 12:44:38;;;;;;;3.60;1.48;;;22.20;98.80;;;;;;5049846;28;20045;-68
2022/08/30 12:47:05;;;;;;;4.88;1.42;;;22.20;99.30;;;;;;5046774;28;20080;-67
2022/08/30 12:49:35;;;;;;;3.17;1.50;;;22.20;99.50;;;;;;5050195;28;20071;-67
2022/08/30 12:52:30;;;;;;;4.25;1.40;;;22.20;99.20;;;;;;5052210;28;20159;-68
2022/08/30 12:55:13;;;;;;;3.10;1.45;;;22.20;98.60;;;;;;5063678;28;20067;-68
2022/08/30 12:58:00;;;;;;;2.67;1.35;;;22.20;98.80;;;;;;5052125;28;20479;-67
2022/08/30 13:00:39;;;;;;;8.70;2.13;;;22.20;98.20;;;;;;5052533;28;20068;-67
2022/08/30 13:03:34;;;;;;;2.97;1.70;;;22.10;98.40;;;;;;5050872;28;20388;-68
2022/08/30 13:05:59;;;;;;;3.30;1.60;;;22.10;98.30;;;;;;5051975;28;20513;-68
2022/08/30 13:08:44;;;;;;;2.75;1.35;;;22.10;98.70;;;;;;5052474;28;20137;-68